sensor_id;sensor_type;location;lat;lon;timestamp;P1;durP1;ratioP1;P2;durP2;ratioP2
74922;SDS011;64715;44.760;37.678;2023-02-11T00:00:26;14.50;;;4.97;;
74922;SDS011;64715;44.760;37.678;2023-02-11T00:01:29;15.88;;;4.90;;
74922;SDS011;64715;44.760;37.678;2023-02-11T00:02:32;15.10;;;4.72;;
74922;SDS011;64715;44.760;37.678;2023-02-11T00:03:33;14.23;;;5.15;;
74922;SDS011;64715;44.760;37.678;2023-02-11T00:04:34;14.02;;;5.00;;
74922;SDS011;64715;44.760;37.678;2023-02-11T00:05:35;15.07;;;4.93;;
74922;SDS011;64715;44.760;37.678;2023-02-11T00:06:36;19.65;;;6.78;;
74922;SDS011;64715;44.760;37.678;2023-02-11T00:07:37;27.10;;;10.30;;
74922;SDS011;64715;44.760;37.678;2023-02-11T00:08:40;21.60;;;7.70;;
74922;SDS011;64715;44.760;37.678;2023-02-11T00:09:41;18.75;;;6.13;;
74922;SDS011;64715;44.760;37.678;2023-02-11T00:10:42;15.15;;;4.45;;
74922;SDS011;64715;44.760;37.678;2023-02-11T00:11:45;16.23;;;5.00;;
74922;SDS011;64715;44.760;37.678;2023-02-11T00:12:46;18.55;;;5.20;;
74922;SDS011;64715;44.760;37.678;2023-02-11T00:13:47;14.20;;;4.90;;
74922;SDS011;64715;44.760;37.678;2023-02-11T00:14:48;15.90;;;5.32;;
74922;SDS011;64715;44.760;37.678;2023-02-11T00:15:49;14.95;;;5.22;;
74922;SDS011;64715;44.760;37.678;2023-02-11T00:16:50;17.38;;;5.25;;
74922;SDS011;64715;44.760;37.678;2023-02-11T00:17:51;14.77;;;5.00;;
74922;SDS011;64715;44.760;37.678;2023-02-11T00:18:52;14.37;;;5.10;;
74922;SDS011;64715;44.760;37.678;2023-02-11T00:19:53;15.88;;;5.30;;
74922;SDS011;64715;44.760;37.678;2023-02-11T00:20:54;12.60;;;4.25;;
74922;SDS011;64715;44.760;37.678;2023-02-11T00:21:55;16.48;;;5.13;;
74922;SDS011;64715;44.760;37.678;2023-02-11T00:22:56;14.93;;;5.10;;
74922;SDS011;64715;44.760;37.678;2023-02-11T00:23:57;11.98;;;3.88;;
74922;SDS011;64715;44.760;37.678;2023-02-11T00:25:01;13.57;;;4.77;;
74922;SDS011;64715;44.760;37.678;2023-02-11T00:26:02;13.52;;;4.63;;
74922;SDS011;64715;44.760;37.678;2023-02-11T00:27:03;13.65;;;4.25;;
74922;SDS011;64715;44.760;37.678;2023-02-11T00:28:04;15.30;;;4.97;;
74922;SDS011;64715;44.760;37.678;2023-02-11T00:29:06;12.65;;;4.70;;
74922;SDS011;64715;44.760;37.678;2023-02-11T00:30:07;10.48;;;3.80;;
74922;SDS011;64715;44.760;37.678;2023-02-11T00:31:10;14.93;;;4.68;;
74922;SDS011;64715;44.760;37.678;2023-02-11T00:32:13;14.73;;;4.80;;
74922;SDS011;64715;44.760;37.678;2023-02-11T00:33:13;16.75;;;5.65;;
74922;SDS011;64715;44.760;37.678;2023-02-11T00:34:14;14.50;;;5.38;;
74922;SDS011;64715;44.760;37.678;2023-02-11T00:35:15;15.38;;;5.60;;
74922;SDS011;64715;44.760;37.678;2023-02-11T00:36:18;15.45;;;5.45;;
74922;SDS011;64715;44.760;37.678;2023-02-11T00:37:28;17.67;;;4.75;;
74922;SDS011;64715;44.760;37.678;2023-02-11T00:38:30;14.20;;;4.65;;
74922;SDS011;64715;44.760;37.678;2023-02-11T00:39:31;14.23;;;4.10;;
74922;SDS011;64715;44.760;37.678;2023-02-11T00:40:32;13.93;;;4.60;;
74922;SDS011;64715;44.760;37.678;2023-02-11T00:41:33;14.82;;;4.28;;
74922;SDS011;64715;44.760;37.678;2023-02-11T00:42:34;13.65;;;4.20;;
74922;SDS011;64715;44.760;37.678;2023-02-11T00:43:36;14.20;;;4.60;;
74922;SDS011;64715;44.760;37.678;2023-02-11T00:44:38;13.73;;;4.95;;
74922;SDS011;64715;44.760;37.678;2023-02-11T00:45:38;13.40;;;4.20;;
74922;SDS011;64715;44.760;37.678;2023-02-11T00:46:40;13.98;;;4.50;;
74922;SDS011;64715;44.760;37.678;2023-02-11T00:47:44;13.38;;;4.50;;
74922;SDS011;64715;44.760;37.678;2023-02-11T00:48:45;11.40;;;3.40;;
74922;SDS011;64715;44.760;37.678;2023-02-11T00:49:46;14.05;;;4.45;;
74922;SDS011;64715;44.760;37.678;2023-02-11T00:50:47;13.27;;;4.53;;
74922;SDS011;64715;44.760;37.678;2023-02-11T00:51:48;13.25;;;4.72;;
74922;SDS011;64715;44.760;37.678;2023-02-11T00:52:49;12.32;;;3.88;;
74922;SDS011;64715;44.760;37.678;2023-02-11T00:53:50;14.00;;;4.75;;
74922;SDS011;64715;44.760;37.678;2023-02-11T00:54:51;14.35;;;4.82;;
74922;SDS011;64715;44.760;37.678;2023-02-11T00:55:52;19.07;;;4.93;;
74922;SDS011;64715;44.760;37.678;2023-02-11T00:56:53;13.93;;;4.55;;
74922;SDS011;64715;44.760;37.678;2023-02-11T00:57:55;14.13;;;4.28;;
74922;SDS011;64715;44.760;37.678;2023-02-11T00:58:58;13.93;;;4.68;;
74922;SDS011;64715;44.760;37.678;2023-02-11T00:59:59;14.13;;;4.45;;
74922;SDS011;64715;44.760;37.678;2023-02-11T01:01:00;14.90;;;4.32;;
74922;SDS011;64715;44.760;37.678;2023-02-11T01:02:00;12.85;;;3.67;;
74922;SDS011;64715;44.760;37.678;2023-02-11T01:03:02;11.10;;;3.50;;
74922;SDS011;64715;44.760;37.678;2023-02-11T01:04:03;11.45;;;3.47;;
74922;SDS011;64715;44.760;37.678;2023-02-11T01:05:04;12.98;;;4.13;;
74922;SDS011;64715;44.760;37.678;2023-02-11T01:06:06;13.68;;;3.85;;
74922;SDS011;64715;44.760;37.678;2023-02-11T01:07:11;14.05;;;3.92;;
74922;SDS011;64715;44.760;37.678;2023-02-11T01:08:12;13.27;;;2.90;;
74922;SDS011;64715;44.760;37.678;2023-02-11T01:09:14;10.70;;;3.65;;
74922;SDS011;64715;44.760;37.678;2023-02-11T01:10:15;13.27;;;4.03;;
74922;SDS011;64715;44.760;37.678;2023-02-11T01:11:18;10.63;;;3.72;;
74922;SDS011;64715;44.760;37.678;2023-02-11T01:12:20;14.20;;;4.50;;
74922;SDS011;64715;44.760;37.678;2023-02-11T01:13:21;11.98;;;3.60;;
74922;SDS011;64715;44.760;37.678;2023-02-11T01:14:23;13.95;;;4.22;;
74922;SDS011;64715;44.760;37.678;2023-02-11T01:15:25;14.52;;;4.70;;
74922;SDS011;64715;44.760;37.678;2023-02-11T01:16:26;12.90;;;4.00;;
74922;SDS011;64715;44.760;37.678;2023-02-11T01:17:27;13.15;;;4.40;;
74922;SDS011;64715;44.760;37.678;2023-02-11T01:18:28;13.00;;;3.67;;
74922;SDS011;64715;44.760;37.678;2023-02-11T01:19:29;12.00;;;3.97;;
74922;SDS011;64715;44.760;37.678;2023-02-11T01:20:30;15.00;;;4.13;;
74922;SDS011;64715;44.760;37.678;2023-02-11T01:21:32;12.65;;;4.07;;
74922;SDS011;64715;44.760;37.678;2023-02-11T01:22:33;12.55;;;3.97;;
74922;SDS011;64715;44.760;37.678;2023-02-11T01:23:36;16.52;;;4.95;;
74922;SDS011;64715;44.760;37.678;2023-02-11T01:24:39;14.05;;;4.57;;
74922;SDS011;64715;44.760;37.678;2023-02-11T01:25:41;14.00;;;4.20;;
74922;SDS011;64715;44.760;37.678;2023-02-11T01:26:42;13.03;;;4.17;;
74922;SDS011;64715;44.760;37.678;2023-02-11T01:27:44;13.50;;;4.60;;
74922;SDS011;64715;44.760;37.678;2023-02-11T01:28:45;13.88;;;4.60;;
74922;SDS011;64715;44.760;37.678;2023-02-11T01:29:46;15.23;;;4.63;;
74922;SDS011;64715;44.760;37.678;2023-02-11T01:30:47;13.63;;;4.40;;
74922;SDS011;64715;44.760;37.678;2023-02-11T01:31:48;10.93;;;3.53;;
74922;SDS011;64715;44.760;37.678;2023-02-11T01:32:49;12.93;;;4.07;;
74922;SDS011;64715;44.760;37.678;2023-02-11T01:33:51;14.65;;;4.47;;
74922;SDS011;64715;44.760;37.678;2023-02-11T01:34:52;13.10;;;4.55;;
74922;SDS011;64715;44.760;37.678;2023-02-11T01:35:53;12.70;;;4.40;;
74922;SDS011;64715;44.760;37.678;2023-02-11T01:36:57;15.07;;;4.95;;
74922;SDS011;64715;44.760;37.678;2023-02-11T01:37:59;16.00;;;4.65;;
74922;SDS011;64715;44.760;37.678;2023-02-11T01:38:59;14.07;;;4.53;;
74922;SDS011;64715;44.760;37.678;2023-02-11T01:40:01;15.50;;;4.60;;
74922;SDS011;64715;44.760;37.678;2023-02-11T01:41:06;16.40;;;4.97;;
74922;SDS011;64715;44.760;37.678;2023-02-11T01:42:12;19.60;;;4.97;;
74922;SDS011;64715;44.760;37.678;2023-02-11T01:43:16;13.60;;;4.60;;
74922;SDS011;64715;44.760;37.678;2023-02-11T01:44:24;14.85;;;4.72;;
74922;SDS011;64715;44.760;37.678;2023-02-11T01:46:42;13.15;;;4.05;;
74922;SDS011;64715;44.760;37.678;2023-02-11T01:47:44;14.38;;;3.78;;
74922;SDS011;64715;44.760;37.678;2023-02-11T01:48:56;17.00;;;5.25;;
74922;SDS011;64715;44.760;37.678;2023-02-11T01:50:01;18.65;;;5.28;;
74922;SDS011;64715;44.760;37.678;2023-02-11T01:51:08;14.90;;;5.00;;
74922;SDS011;64715;44.760;37.678;2023-02-11T01:52:18;14.33;;;4.30;;
74922;SDS011;64715;44.760;37.678;2023-02-11T01:53:23;12.63;;;3.67;;
74922;SDS011;64715;44.760;37.678;2023-02-11T01:54:45;11.10;;;3.80;;
74922;SDS011;64715;44.760;37.678;2023-02-11T01:56:09;14.90;;;4.35;;
74922;SDS011;64715;44.760;37.678;2023-02-11T01:57:30;11.00;;;3.42;;
74922;SDS011;64715;44.760;37.678;2023-02-11T01:58:33;13.18;;;4.00;;
74922;SDS011;64715;44.760;37.678;2023-02-11T02:00:25;13.45;;;4.10;;
74922;SDS011;64715;44.760;37.678;2023-02-11T02:01:15;12.65;;;4.03;;
74922;SDS011;64715;44.760;37.678;2023-02-11T02:02:24;13.50;;;4.40;;
74922;SDS011;64715;44.760;37.678;2023-02-11T02:03:30;13.60;;;4.20;;
74922;SDS011;64715;44.760;37.678;2023-02-11T02:04:38;14.23;;;4.40;;
74922;SDS011;64715;44.760;37.678;2023-02-11T02:05:54;11.40;;;4.13;;
74922;SDS011;64715;44.760;37.678;2023-02-11T02:07:02;12.52;;;3.55;;
74922;SDS011;64715;44.760;37.678;2023-02-11T02:08:20;13.73;;;3.97;;
74922;SDS011;64715;44.760;37.678;2023-02-11T02:09:32;13.27;;;4.28;;
74922;SDS011;64715;44.760;37.678;2023-02-11T02:10:40;16.25;;;4.47;;
74922;SDS011;64715;44.760;37.678;2023-02-11T02:11:43;15.23;;;4.95;;
74922;SDS011;64715;44.760;37.678;2023-02-11T02:12:44;15.05;;;4.50;;
74922;SDS011;64715;44.760;37.678;2023-02-11T02:13:46;13.30;;;4.55;;
74922;SDS011;64715;44.760;37.678;2023-02-11T02:14:47;16.90;;;5.20;;
74922;SDS011;64715;44.760;37.678;2023-02-11T02:15:48;16.77;;;5.47;;
74922;SDS011;64715;44.760;37.678;2023-02-11T02:16:59;11.57;;;4.20;;
74922;SDS011;64715;44.760;37.678;2023-02-11T02:18:02;13.65;;;4.80;;
74922;SDS011;64715;44.760;37.678;2023-02-11T02:24:37;14.27;;;4.20;;
74922;SDS011;64715;44.760;37.678;2023-02-11T02:34:38;13.60;;;3.85;;
74922;SDS011;64715;44.760;37.678;2023-02-11T02:35:53;12.75;;;3.78;;
74922;SDS011;64715;44.760;37.678;2023-02-11T02:37:05;14.52;;;4.57;;
74922;SDS011;64715;44.760;37.678;2023-02-11T02:39:48;15.55;;;5.05;;
74922;SDS011;64715;44.760;37.678;2023-02-11T02:40:57;13.50;;;5.22;;
74922;SDS011;64715;44.760;37.678;2023-02-11T02:42:20;15.82;;;5.32;;
74922;SDS011;64715;44.760;37.678;2023-02-11T02:43:24;14.45;;;4.90;;
74922;SDS011;64715;44.760;37.678;2023-02-11T02:44:26;15.93;;;5.15;;
74922;SDS011;64715;44.760;37.678;2023-02-11T02:45:28;14.30;;;4.40;;
74922;SDS011;64715;44.760;37.678;2023-02-11T02:46:31;16.30;;;4.57;;
74922;SDS011;64715;44.760;37.678;2023-02-11T02:47:33;14.68;;;4.10;;
74922;SDS011;64715;44.760;37.678;2023-02-11T02:48:34;13.63;;;4.22;;
74922;SDS011;64715;44.760;37.678;2023-02-11T02:49:35;11.27;;;3.83;;
74922;SDS011;64715;44.760;37.678;2023-02-11T02:50:36;13.55;;;3.97;;
74922;SDS011;64715;44.760;37.678;2023-02-11T02:52:55;12.93;;;3.97;;
74922;SDS011;64715;44.760;37.678;2023-02-11T03:04:07;14.85;;;3.80;;
74922;SDS011;64715;44.760;37.678;2023-02-11T03:05:25;15.93;;;3.83;;
74922;SDS011;64715;44.760;37.678;2023-02-11T03:07:49;14.05;;;4.13;;
74922;SDS011;64715;44.760;37.678;2023-02-11T03:10:21;16.90;;;5.07;;
74922;SDS011;64715;44.760;37.678;2023-02-11T03:11:43;10.57;;;3.40;;
74922;SDS011;64715;44.760;37.678;2023-02-11T03:12:45;15.27;;;4.38;;
74922;SDS011;64715;44.760;37.678;2023-02-11T03:13:47;14.38;;;4.53;;
74922;SDS011;64715;44.760;37.678;2023-02-11T03:14:50;15.48;;;4.32;;
74922;SDS011;64715;44.760;37.678;2023-02-11T03:15:52;12.77;;;4.07;;
74922;SDS011;64715;44.760;37.678;2023-02-11T03:16:57;13.55;;;3.70;;
74922;SDS011;64715;44.760;37.678;2023-02-11T03:18:00;12.95;;;3.90;;
74922;SDS011;64715;44.760;37.678;2023-02-11T03:20:21;12.77;;;3.30;;
74922;SDS011;64715;44.760;37.678;2023-02-11T03:21:22;12.05;;;3.75;;
74922;SDS011;64715;44.760;37.678;2023-02-11T03:22:26;11.15;;;3.30;;
74922;SDS011;64715;44.760;37.678;2023-02-11T03:23:45;13.10;;;4.05;;
74922;SDS011;64715;44.760;37.678;2023-02-11T03:24:50;12.05;;;3.72;;
74922;SDS011;64715;44.760;37.678;2023-02-11T03:26:04;13.93;;;4.20;;
74922;SDS011;64715;44.760;37.678;2023-02-11T03:27:24;11.02;;;3.47;;
74922;SDS011;64715;44.760;37.678;2023-02-11T03:28:31;13.63;;;3.60;;
74922;SDS011;64715;44.760;37.678;2023-02-11T03:30:52;10.75;;;3.25;;
74922;SDS011;64715;44.760;37.678;2023-02-11T03:32:16;9.90;;;3.07;;
74922;SDS011;64715;44.760;37.678;2023-02-11T03:33:58;11.32;;;3.35;;
74922;SDS011;64715;44.760;37.678;2023-02-11T03:35:17;9.95;;;2.90;;
74922;SDS011;64715;44.760;37.678;2023-02-11T03:36:25;9.25;;;2.92;;
74922;SDS011;64715;44.760;37.678;2023-02-11T03:37:49;10.07;;;2.90;;
74922;SDS011;64715;44.760;37.678;2023-02-11T03:38:54;9.43;;;2.35;;
74922;SDS011;64715;44.760;37.678;2023-02-11T03:40:05;10.60;;;2.33;;
74922;SDS011;64715;44.760;37.678;2023-02-11T03:41:10;11.52;;;3.25;;
74922;SDS011;64715;44.760;37.678;2023-02-11T03:42:15;10.10;;;2.33;;
74922;SDS011;64715;44.760;37.678;2023-02-11T03:43:22;10.48;;;3.03;;
74922;SDS011;64715;44.760;37.678;2023-02-11T03:44:36;12.03;;;3.67;;
74922;SDS011;64715;44.760;37.678;2023-02-11T03:45:41;9.85;;;2.63;;
74922;SDS011;64715;44.760;37.678;2023-02-11T03:46:47;10.02;;;2.92;;
74922;SDS011;64715;44.760;37.678;2023-02-11T03:47:53;9.70;;;2.63;;
74922;SDS011;64715;44.760;37.678;2023-02-11T03:49:03;11.95;;;3.15;;
74922;SDS011;64715;44.760;37.678;2023-02-11T03:50:09;11.02;;;2.72;;
74922;SDS011;64715;44.760;37.678;2023-02-11T03:51:13;15.90;;;3.67;;
74922;SDS011;64715;44.760;37.678;2023-02-11T03:52:16;11.07;;;3.13;;
74922;SDS011;64715;44.760;37.678;2023-02-11T03:53:19;9.05;;;2.63;;
74922;SDS011;64715;44.760;37.678;2023-02-11T03:54:25;10.32;;;3.17;;
74922;SDS011;64715;44.760;37.678;2023-02-11T03:55:29;11.20;;;3.17;;
74922;SDS011;64715;44.760;37.678;2023-02-11T03:56:37;11.98;;;3.28;;
74922;SDS011;64715;44.760;37.678;2023-02-11T03:57:49;10.98;;;3.03;;
74922;SDS011;64715;44.760;37.678;2023-02-11T03:58:49;12.20;;;3.30;;
74922;SDS011;64715;44.760;37.678;2023-02-11T03:59:51;9.68;;;3.03;;
74922;SDS011;64715;44.760;37.678;2023-02-11T04:00:54;11.38;;;3.03;;
74922;SDS011;64715;44.760;37.678;2023-02-11T04:01:55;11.20;;;3.22;;
74922;SDS011;64715;44.760;37.678;2023-02-11T04:02:58;10.27;;;3.07;;
74922;SDS011;64715;44.760;37.678;2023-02-11T04:03:59;11.13;;;3.38;;
74922;SDS011;64715;44.760;37.678;2023-02-11T04:05:00;11.00;;;3.33;;
74922;SDS011;64715;44.760;37.678;2023-02-11T04:06:02;9.43;;;2.63;;
74922;SDS011;64715;44.760;37.678;2023-02-11T04:07:03;11.00;;;3.72;;
74922;SDS011;64715;44.760;37.678;2023-02-11T04:08:05;11.23;;;3.33;;
74922;SDS011;64715;44.760;37.678;2023-02-11T04:09:06;11.50;;;3.70;;
74922;SDS011;64715;44.760;37.678;2023-02-11T04:10:07;9.90;;;2.72;;
74922;SDS011;64715;44.760;37.678;2023-02-11T04:11:08;11.45;;;3.05;;
74922;SDS011;64715;44.760;37.678;2023-02-11T04:12:09;10.10;;;3.03;;
74922;SDS011;64715;44.760;37.678;2023-02-11T04:13:10;13.85;;;3.70;;
74922;SDS011;64715;44.760;37.678;2023-02-11T04:14:12;10.30;;;2.90;;
74922;SDS011;64715;44.760;37.678;2023-02-11T04:15:14;10.27;;;2.67;;
74922;SDS011;64715;44.760;37.678;2023-02-11T04:16:15;9.77;;;2.95;;
74922;SDS011;64715;44.760;37.678;2023-02-11T04:17:16;10.93;;;3.10;;
74922;SDS011;64715;44.760;37.678;2023-02-11T04:18:17;9.90;;;2.95;;
74922;SDS011;64715;44.760;37.678;2023-02-11T04:19:18;10.95;;;3.30;;
74922;SDS011;64715;44.760;37.678;2023-02-11T04:20:19;10.52;;;3.40;;
74922;SDS011;64715;44.760;37.678;2023-02-11T04:21:20;8.55;;;2.72;;
74922;SDS011;64715;44.760;37.678;2023-02-11T04:22:21;10.83;;;3.03;;
74922;SDS011;64715;44.760;37.678;2023-02-11T04:23:22;13.45;;;3.63;;
74922;SDS011;64715;44.760;37.678;2023-02-11T04:24:23;10.15;;;3.28;;
74922;SDS011;64715;44.760;37.678;2023-02-11T04:25:24;10.80;;;2.97;;
74922;SDS011;64715;44.760;37.678;2023-02-11T04:26:25;11.27;;;3.28;;
74922;SDS011;64715;44.760;37.678;2023-02-11T04:27:26;10.20;;;3.35;;
74922;SDS011;64715;44.760;37.678;2023-02-11T04:28:27;10.88;;;2.83;;
74922;SDS011;64715;44.760;37.678;2023-02-11T04:29:28;9.60;;;2.37;;
74922;SDS011;64715;44.760;37.678;2023-02-11T04:30:29;12.20;;;2.78;;
74922;SDS011;64715;44.760;37.678;2023-02-11T04:31:30;9.40;;;2.50;;
74922;SDS011;64715;44.760;37.678;2023-02-11T04:32:31;8.93;;;2.13;;
74922;SDS011;64715;44.760;37.678;2023-02-11T04:33:32;10.43;;;2.83;;
74922;SDS011;64715;44.760;37.678;2023-02-11T04:34:33;9.57;;;2.65;;
74922;SDS011;64715;44.760;37.678;2023-02-11T04:35:34;10.20;;;2.50;;
74922;SDS011;64715;44.760;37.678;2023-02-11T04:36:37;7.95;;;2.35;;
74922;SDS011;64715;44.760;37.678;2023-02-11T04:37:38;9.13;;;2.58;;
74922;SDS011;64715;44.760;37.678;2023-02-11T04:38:39;8.38;;;2.17;;
74922;SDS011;64715;44.760;37.678;2023-02-11T04:39:40;9.23;;;1.92;;
74922;SDS011;64715;44.760;37.678;2023-02-11T04:40:41;8.43;;;2.30;;
74922;SDS011;64715;44.760;37.678;2023-02-11T04:41:42;9.35;;;2.50;;
74922;SDS011;64715;44.760;37.678;2023-02-11T04:42:43;10.23;;;2.60;;
74922;SDS011;64715;44.760;37.678;2023-02-11T04:43:44;8.85;;;2.13;;
74922;SDS011;64715;44.760;37.678;2023-02-11T04:44:44;10.50;;;2.53;;
74922;SDS011;64715;44.760;37.678;2023-02-11T04:45:46;9.18;;;2.40;;
74922;SDS011;64715;44.760;37.678;2023-02-11T04:46:46;11.05;;;2.78;;
74922;SDS011;64715;44.760;37.678;2023-02-11T04:47:48;8.50;;;2.60;;
74922;SDS011;64715;44.760;37.678;2023-02-11T04:48:49;11.40;;;3.25;;
74922;SDS011;64715;44.760;37.678;2023-02-11T04:49:51;13.20;;;2.93;;
74922;SDS011;64715;44.760;37.678;2023-02-11T04:50:52;13.00;;;3.13;;
74922;SDS011;64715;44.760;37.678;2023-02-11T04:51:53;17.40;;;5.32;;
74922;SDS011;64715;44.760;37.678;2023-02-11T04:52:54;22.17;;;6.70;;
74922;SDS011;64715;44.760;37.678;2023-02-11T04:53:55;13.57;;;4.18;;
74922;SDS011;64715;44.760;37.678;2023-02-11T04:54:56;25.38;;;7.05;;
74922;SDS011;64715;44.760;37.678;2023-02-11T04:55:57;21.85;;;6.55;;
74922;SDS011;64715;44.760;37.678;2023-02-11T04:56:58;43.15;;;12.57;;
74922;SDS011;64715;44.760;37.678;2023-02-11T04:57:59;25.63;;;7.87;;
74922;SDS011;64715;44.760;37.678;2023-02-11T04:59:00;29.30;;;8.88;;
74922;SDS011;64715;44.760;37.678;2023-02-11T05:00:01;34.00;;;10.50;;
74922;SDS011;64715;44.760;37.678;2023-02-11T05:01:09;29.85;;;10.10;;
74922;SDS011;64715;44.760;37.678;2023-02-11T05:02:11;20.88;;;7.35;;
74922;SDS011;64715;44.760;37.678;2023-02-11T05:03:12;19.92;;;6.32;;
74922;SDS011;64715;44.760;37.678;2023-02-11T05:04:13;12.80;;;4.35;;
74922;SDS011;64715;44.760;37.678;2023-02-11T05:05:15;13.80;;;4.73;;
74922;SDS011;64715;44.760;37.678;2023-02-11T05:06:16;10.32;;;3.25;;
74922;SDS011;64715;44.760;37.678;2023-02-11T05:07:17;11.10;;;3.30;;
74922;SDS011;64715;44.760;37.678;2023-02-11T05:08:18;13.70;;;4.82;;
74922;SDS011;64715;44.760;37.678;2023-02-11T05:09:18;10.95;;;2.80;;
74922;SDS011;64715;44.760;37.678;2023-02-11T05:10:19;16.02;;;6.30;;
74922;SDS011;64715;44.760;37.678;2023-02-11T05:11:21;12.00;;;4.13;;
74922;SDS011;64715;44.760;37.678;2023-02-11T05:12:24;13.68;;;4.88;;
74922;SDS011;64715;44.760;37.678;2023-02-11T05:13:25;8.38;;;2.95;;
74922;SDS011;64715;44.760;37.678;2023-02-11T05:14:26;9.07;;;3.30;;
74922;SDS011;64715;44.760;37.678;2023-02-11T05:15:27;10.25;;;3.28;;
74922;SDS011;64715;44.760;37.678;2023-02-11T05:16:28;10.68;;;3.20;;
74922;SDS011;64715;44.760;37.678;2023-02-11T05:17:29;14.80;;;4.40;;
74922;SDS011;64715;44.760;37.678;2023-02-11T05:18:30;15.90;;;6.35;;
74922;SDS011;64715;44.760;37.678;2023-02-11T05:19:31;14.93;;;6.05;;
74922;SDS011;64715;44.760;37.678;2023-02-11T05:20:32;13.48;;;3.75;;
74922;SDS011;64715;44.760;37.678;2023-02-11T05:21:33;9.85;;;3.45;;
74922;SDS011;64715;44.760;37.678;2023-02-11T05:22:34;10.38;;;2.80;;
74922;SDS011;64715;44.760;37.678;2023-02-11T05:23:35;10.97;;;3.70;;
74922;SDS011;64715;44.760;37.678;2023-02-11T05:24:37;11.73;;;3.88;;
74922;SDS011;64715;44.760;37.678;2023-02-11T05:25:37;11.02;;;3.05;;
74922;SDS011;64715;44.760;37.678;2023-02-11T05:26:39;11.20;;;3.67;;
74922;SDS011;64715;44.760;37.678;2023-02-11T05:27:40;8.30;;;2.55;;
74922;SDS011;64715;44.760;37.678;2023-02-11T05:28:41;13.63;;;4.30;;
74922;SDS011;64715;44.760;37.678;2023-02-11T05:29:43;12.77;;;4.38;;
74922;SDS011;64715;44.760;37.678;2023-02-11T05:30:43;12.40;;;3.43;;
74922;SDS011;64715;44.760;37.678;2023-02-11T05:31:44;12.73;;;3.80;;
74922;SDS011;64715;44.760;37.678;2023-02-11T05:32:46;7.57;;;2.45;;
74922;SDS011;64715;44.760;37.678;2023-02-11T05:33:46;11.48;;;3.42;;
74922;SDS011;64715;44.760;37.678;2023-02-11T05:34:47;11.98;;;3.50;;
74922;SDS011;64715;44.760;37.678;2023-02-11T05:35:48;11.53;;;3.63;;
74922;SDS011;64715;44.760;37.678;2023-02-11T05:36:49;17.73;;;5.55;;
74922;SDS011;64715;44.760;37.678;2023-02-11T05:37:50;15.15;;;5.68;;
74922;SDS011;64715;44.760;37.678;2023-02-11T05:38:51;16.33;;;5.30;;
74922;SDS011;64715;44.760;37.678;2023-02-11T05:39:52;14.63;;;5.43;;
74922;SDS011;64715;44.760;37.678;2023-02-11T05:40:53;18.83;;;6.10;;
74922;SDS011;64715;44.760;37.678;2023-02-11T05:41:55;13.47;;;4.53;;
74922;SDS011;64715;44.760;37.678;2023-02-11T05:42:56;15.98;;;5.47;;
74922;SDS011;64715;44.760;37.678;2023-02-11T05:43:56;18.25;;;5.97;;
74922;SDS011;64715;44.760;37.678;2023-02-11T05:44:57;18.25;;;7.13;;
74922;SDS011;64715;44.760;37.678;2023-02-11T05:45:59;15.50;;;4.63;;
74922;SDS011;64715;44.760;37.678;2023-02-11T05:46:59;17.33;;;6.43;;
74922;SDS011;64715;44.760;37.678;2023-02-11T05:48:02;19.27;;;6.90;;
74922;SDS011;64715;44.760;37.678;2023-02-11T05:49:03;11.80;;;4.10;;
74922;SDS011;64715;44.760;37.678;2023-02-11T05:50:04;14.70;;;4.80;;
74922;SDS011;64715;44.760;37.678;2023-02-11T05:51:05;13.20;;;5.50;;
74922;SDS011;64715;44.760;37.678;2023-02-11T05:52:06;12.18;;;3.70;;
74922;SDS011;64715;44.760;37.678;2023-02-11T05:53:07;13.60;;;3.92;;
74922;SDS011;64715;44.760;37.678;2023-02-11T05:54:08;8.43;;;2.67;;
74922;SDS011;64715;44.760;37.678;2023-02-11T05:55:09;11.18;;;4.05;;
74922;SDS011;64715;44.760;37.678;2023-02-11T05:56:10;9.40;;;2.43;;
74922;SDS011;64715;44.760;37.678;2023-02-11T05:57:12;11.10;;;3.67;;
74922;SDS011;64715;44.760;37.678;2023-02-11T05:58:13;13.27;;;3.53;;
74922;SDS011;64715;44.760;37.678;2023-02-11T05:59:14;13.57;;;4.43;;
74922;SDS011;64715;44.760;37.678;2023-02-11T06:00:15;14.80;;;4.78;;
74922;SDS011;64715;44.760;37.678;2023-02-11T06:01:16;10.38;;;2.65;;
74922;SDS011;64715;44.760;37.678;2023-02-11T06:02:17;9.25;;;2.50;;
74922;SDS011;64715;44.760;37.678;2023-02-11T06:03:18;12.02;;;3.60;;
74922;SDS011;64715;44.760;37.678;2023-02-11T06:04:19;15.35;;;5.35;;
74922;SDS011;64715;44.760;37.678;2023-02-11T06:05:21;13.48;;;4.50;;
74922;SDS011;64715;44.760;37.678;2023-02-11T06:06:22;13.77;;;4.05;;
74922;SDS011;64715;44.760;37.678;2023-02-11T06:07:23;13.65;;;4.00;;
74922;SDS011;64715;44.760;37.678;2023-02-11T06:08:24;10.20;;;3.13;;
74922;SDS011;64715;44.760;37.678;2023-02-11T06:09:25;11.43;;;3.33;;
74922;SDS011;64715;44.760;37.678;2023-02-11T06:10:28;12.53;;;3.17;;
74922;SDS011;64715;44.760;37.678;2023-02-11T06:11:28;10.57;;;3.13;;
74922;SDS011;64715;44.760;37.678;2023-02-11T06:12:29;10.70;;;3.60;;
74922;SDS011;64715;44.760;37.678;2023-02-11T06:13:31;10.38;;;3.38;;
74922;SDS011;64715;44.760;37.678;2023-02-11T06:14:32;9.57;;;3.13;;
74922;SDS011;64715;44.760;37.678;2023-02-11T06:15:33;11.98;;;2.95;;
74922;SDS011;64715;44.760;37.678;2023-02-11T06:16:35;15.20;;;5.85;;
74922;SDS011;64715;44.760;37.678;2023-02-11T06:17:36;13.75;;;4.85;;
74922;SDS011;64715;44.760;37.678;2023-02-11T06:18:37;13.17;;;4.53;;
74922;SDS011;64715;44.760;37.678;2023-02-11T06:19:38;14.35;;;5.38;;
74922;SDS011;64715;44.760;37.678;2023-02-11T06:20:39;17.50;;;5.57;;
74922;SDS011;64715;44.760;37.678;2023-02-11T06:21:40;14.23;;;5.25;;
74922;SDS011;64715;44.760;37.678;2023-02-11T06:22:41;12.43;;;4.35;;
74922;SDS011;64715;44.760;37.678;2023-02-11T06:23:42;18.25;;;7.00;;
74922;SDS011;64715;44.760;37.678;2023-02-11T06:24:44;22.92;;;9.23;;
74922;SDS011;64715;44.760;37.678;2023-02-11T06:25:45;16.27;;;5.87;;
74922;SDS011;64715;44.760;37.678;2023-02-11T06:26:45;16.90;;;6.00;;
74922;SDS011;64715;44.760;37.678;2023-02-11T06:27:46;13.45;;;5.15;;
74922;SDS011;64715;44.760;37.678;2023-02-11T06:28:47;14.65;;;4.65;;
74922;SDS011;64715;44.760;37.678;2023-02-11T06:29:48;8.73;;;2.28;;
74922;SDS011;64715;44.760;37.678;2023-02-11T06:30:51;12.38;;;4.53;;
74922;SDS011;64715;44.760;37.678;2023-02-11T06:31:52;11.27;;;3.47;;
74922;SDS011;64715;44.760;37.678;2023-02-11T06:32:53;12.70;;;4.88;;
74922;SDS011;64715;44.760;37.678;2023-02-11T06:33:54;15.77;;;4.30;;
74922;SDS011;64715;44.760;37.678;2023-02-11T06:34:55;11.90;;;4.03;;
74922;SDS011;64715;44.760;37.678;2023-02-11T06:35:56;12.73;;;4.57;;
74922;SDS011;64715;44.760;37.678;2023-02-11T06:36:57;13.45;;;4.38;;
74922;SDS011;64715;44.760;37.678;2023-02-11T06:37:58;10.95;;;3.50;;
74922;SDS011;64715;44.760;37.678;2023-02-11T06:38:59;10.65;;;3.28;;
74922;SDS011;64715;44.760;37.678;2023-02-11T06:40:00;10.05;;;2.65;;
74922;SDS011;64715;44.760;37.678;2023-02-11T06:41:01;12.07;;;3.03;;
74922;SDS011;64715;44.760;37.678;2023-02-11T06:42:02;7.78;;;1.75;;
74922;SDS011;64715;44.760;37.678;2023-02-11T06:43:03;8.32;;;2.85;;
74922;SDS011;64715;44.760;37.678;2023-02-11T06:44:04;9.35;;;2.75;;